sensor_id;sensor_type;location;lat;lon;timestamp;temperature;humidity
9699;DHT22;10089;47.876;8.346;2023-12-28T00:00:07;7.70;1.00
9699;DHT22;10089;47.876;8.346;2023-12-28T00:02:33;7.60;1.00
9699;DHT22;10089;47.876;8.346;2023-12-28T00:04:58;7.70;1.00
9699;DHT22;10089;47.876;8.346;2023-12-28T00:07:24;7.80;1.00
9699;DHT22;10089;47.876;8.346;2023-12-28T00:09:49;7.90;1.00
9699;DHT22;10089;47.876;8.346;2023-12-28T00:12:15;7.80;1.00
9699;DHT22;10089;47.876;8.346;2023-12-28T00:14:41;7.80;1.00
9699;DHT22;10089;47.876;8.346;2023-12-28T00:17:06;7.70;1.00
9699;DHT22;10089;47.876;8.346;2023-12-28T00:19:32;7.70;1.00
9699;DHT22;10089;47.876;8.346;2023-12-28T00:21:57;7.80;1.00
9699;DHT22;10089;47.876;8.346;2023-12-28T00:24:23;7.90;1.00
9699;DHT22;10089;47.876;8.346;2023-12-28T00:26:48;8.10;6.40
9699;DHT22;10089;47.876;8.346;2023-12-28T00:29:14;8.10;1.00
9699;DHT22;10089;47.876;8.346;2023-12-28T00:31:39;8.10;1.00
9699;DHT22;10089;47.876;8.346;2023-12-28T00:34:05;7.60;1.00
9699;DHT22;10089;47.876;8.346;2023-12-28T00:36:30;8.40;1.00
9699;DHT22;10089;47.876;8.346;2023-12-28T00:38:57;8.40;1.00
9699;DHT22;10089;47.876;8.346;2023-12-28T00:41:22;8.20;1.00
9699;DHT22;10089;47.876;8.346;2023-12-28T00:43:48;8.10;1.00
9699;DHT22;10089;47.876;8.346;2023-12-28T00:46:13;8.10;1.00
9699;DHT22;10089;47.876;8.346;2023-12-28T00:48:39;8.10;1.00
9699;DHT22;10089;47.876;8.346;2023-12-28T00:51:04;8.00;1.00
9699;DHT22;10089;47.876;8.346;2023-12-28T00:53:30;8.10;1.00
9699;DHT22;10089;47.876;8.346;2023-12-28T00:55:56;7.90;1.00
9699;DHT22;10089;47.876;8.346;2023-12-28T00:58:22;7.70;1.00
9699;DHT22;10089;47.876;8.346;2023-12-28T01:00:47;7.60;1.00
9699;DHT22;10089;47.876;8.346;2023-12-28T01:03:13;7.60;1.00
9699;DHT22;10089;47.876;8.346;2023-12-28T01:05:38;7.60;1.00
9699;DHT22;10089;47.876;8.346;2023-12-28T01:08:04;7.10;15.70
9699;DHT22;10089;47.876;8.346;2023-12-28T01:10:30;7.50;1.00
9699;DHT22;10089;47.876;8.346;2023-12-28T01:12:55;7.60;1.00
9699;DHT22;10089;47.876;8.346;2023-12-28T01:15:21;7.30;1.00
9699;DHT22;10089;47.876;8.346;2023-12-28T01:17:46;7.70;1.00
9699;DHT22;10089;47.876;8.346;2023-12-28T01:20:12;7.70;1.00
9699;DHT22;10089;47.876;8.346;2023-12-28T01:22:38;7.60;1.00
9699;DHT22;10089;47.876;8.346;2023-12-28T01:25:04;7.60;1.00
9699;DHT22;10089;47.876;8.346;2023-12-28T01:27:29;7.40;1.00
9699;DHT22;10089;47.876;8.346;2023-12-28T01:29:55;7.60;1.00
9699;DHT22;10089;47.876;8.346;2023-12-28T01:32:22;7.50;1.00
9699;DHT22;10089;47.876;8.346;2023-12-28T01:34:47;7.40;1.00
9699;DHT22;10089;47.876;8.346;2023-12-28T01:37:13;7.40;1.00
9699;DHT22;10089;47.876;8.346;2023-12-28T01:39:39;7.40;1.00
9699;DHT22;10089;47.876;8.346;2023-12-28T01:42:05;7.30;1.00
9699;DHT22;10089;47.876;8.346;2023-12-28T01:44:30;7.30;1.00
9699;DHT22;10089;47.876;8.346;2023-12-28T01:46:56;7.30;1.00
9699;DHT22;10089;47.876;8.346;2023-12-28T01:49:23;7.40;1.00
9699;DHT22;10089;47.876;8.346;2023-12-28T01:51:49;7.60;1.00
9699;DHT22;10089;47.876;8.346;2023-12-28T01:54:15;7.50;1.00
9699;DHT22;10089;47.876;8.346;2023-12-28T01:56:41;7.50;1.00
9699;DHT22;10089;47.876;8.346;2023-12-28T01:59:07;7.50;1.00
9699;DHT22;10089;47.876;8.346;2023-12-28T02:01:33;7.50;1.30
9699;DHT22;10089;47.876;8.346;2023-12-28T02:03:58;7.50;1.00
9699;DHT22;10089;47.876;8.346;2023-12-28T02:06:24;7.50;1.00
9699;DHT22;10089;47.876;8.346;2023-12-28T02:08:50;7.60;1.00
9699;DHT22;10089;47.876;8.346;2023-12-28T02:11:16;7.60;1.00
9699;DHT22;10089;47.876;8.346;2023-12-28T02:13:43;7.60;1.00
9699;DHT22;10089;47.876;8.346;2023-12-28T02:16:19;7.70;1.00
9699;DHT22;10089;47.876;8.346;2023-12-28T02:18:50;7.60;1.00
9699;DHT22;10089;47.876;8.346;2023-12-28T02:21:17;7.80;1.00
9699;DHT22;10089;47.876;8.346;2023-12-28T02:23:48;7.70;1.00
9699;DHT22;10089;47.876;8.346;2023-12-28T02:26:15;7.60;1.00
9699;DHT22;10089;47.876;8.346;2023-12-28T02:28:40;7.70;1.00
9699;DHT22;10089;47.876;8.346;2023-12-28T02:31:08;7.70;1.00
9699;DHT22;10089;47.876;8.346;2023-12-28T02:33:58;7.60;1.00
9699;DHT22;10089;47.876;8.346;2023-12-28T02:36:27;7.80;1.00
9699;DHT22;10089;47.876;8.346;2023-12-28T02:38:53;7.80;1.00
9699;DHT22;10089;47.876;8.346;2023-12-28T02:41:21;7.90;1.00
9699;DHT22;10089;47.876;8.346;2023-12-28T02:43:48;7.90;1.00
9699;DHT22;10089;47.876;8.346;2023-12-28T02:46:14;7.80;1.00
9699;DHT22;10089;47.876;8.346;2023-12-28T02:48:39;7.90;1.00
9699;DHT22;10089;47.876;8.346;2023-12-28T02:51:05;7.80;1.00
9699;DHT22;10089;47.876;8.346;2023-12-28T02:53:30;7.80;1.00
9699;DHT22;10089;47.876;8.346;2023-12-28T02:55:56;7.80;1.00
9699;DHT22;10089;47.876;8.346;2023-12-28T02:58:22;7.80;11.70
9699;DHT22;10089;47.876;8.346;2023-12-28T03:00:47;7.80;1.00
9699;DHT22;10089;47.876;8.346;2023-12-28T03:03:14;7.80;1.00
9699;DHT22;10089;47.876;8.346;2023-12-28T03:05:39;7.70;1.00
9699;DHT22;10089;47.876;8.346;2023-12-28T03:08:06;7.70;1.00
9699;DHT22;10089;47.876;8.346;2023-12-28T03:10:32;7.80;1.00
9699;DHT22;10089;47.876;8.346;2023-12-28T03:12:58;7.70;1.00
9699;DHT22;10089;47.876;8.346;2023-12-28T03:15:23;7.70;1.00
9699;DHT22;10089;47.876;8.346;2023-12-28T03:17:49;7.80;1.80
9699;DHT22;10089;47.876;8.346;2023-12-28T03:20:15;7.80;1.00
9699;DHT22;10089;47.876;8.346;2023-12-28T03:22:40;7.80;1.00
9699;DHT22;10089;47.876;8.346;2023-12-28T03:25:06;7.60;3.70
9699;DHT22;10089;47.876;8.346;2023-12-28T03:27:32;7.50;4.10
9699;DHT22;10089;47.876;8.346;2023-12-28T03:29:58;7.40;6.50
9699;DHT22;10089;47.876;8.346;2023-12-28T03:32:23;7.40;9.30
9699;DHT22;10089;47.876;8.346;2023-12-28T03:34:49;7.50;6.10
9699;DHT22;10089;47.876;8.346;2023-12-28T03:37:14;7.40;9.30
9699;DHT22;10089;47.876;8.346;2023-12-28T03:39:40;7.30;9.10
9699;DHT22;10089;47.876;8.346;2023-12-28T03:42:06;7.40;9.80
9699;DHT22;10089;47.876;8.346;2023-12-28T03:44:34;7.40;8.80
9699;DHT22;10089;47.876;8.346;2023-12-28T03:46:59;7.40;9.90
9699;DHT22;10089;47.876;8.346;2023-12-28T03:49:25;7.40;11.80
9699;DHT22;10089;47.876;8.346;2023-12-28T03:51:51;7.40;12.00
9699;DHT22;10089;47.876;8.346;2023-12-28T03:54:18;7.40;12.30
9699;DHT22;10089;47.876;8.346;2023-12-28T03:56:45;7.40;15.90
9699;DHT22;10089;47.876;8.346;2023-12-28T03:59:10;7.30;16.10
9699;DHT22;10089;47.876;8.346;2023-12-28T04:01:36;7.30;15.30
9699;DHT22;10089;47.876;8.346;2023-12-28T04:04:02;7.20;17.90
9699;DHT22;10089;47.876;8.346;2023-12-28T04:06:28;7.30;19.40
9699;DHT22;10089;47.876;8.346;2023-12-28T04:08:53;7.30;21.50
9699;DHT22;10089;47.876;8.346;2023-12-28T04:11:19;7.30;24.40
9699;DHT22;10089;47.876;8.346;2023-12-28T04:13:45;7.30;28.20
9699;DHT22;10089;47.876;8.346;2023-12-28T04:16:14;7.30;29.70
9699;DHT22;10089;47.876;8.346;2023-12-28T04:18:41;7.30;36.60
9699;DHT22;10089;47.876;8.346;2023-12-28T04:21:11;7.20;42.30
9699;DHT22;10089;47.876;8.346;2023-12-28T04:23:38;7.40;41.10
9699;DHT22;10089;47.876;8.346;2023-12-28T04:26:03;7.30;49.90
9699;DHT22;10089;47.876;8.346;2023-12-28T04:28:29;7.40;53.50
9699;DHT22;10089;47.876;8.346;2023-12-28T04:30:55;7.30;59.70
9699;DHT22;10089;47.876;8.346;2023-12-28T04:33:21;7.40;65.10
9699;DHT22;10089;47.876;8.346;2023-12-28T04:35:46;7.40;71.80
9699;DHT22;10089;47.876;8.346;2023-12-28T04:38:12;7.30;81.50
9699;DHT22;10089;47.876;8.346;2023-12-28T04:40:38;7.40;90.20
9699;DHT22;10089;47.876;8.346;2023-12-28T04:43:03;7.30;94.40
9699;DHT22;10089;47.876;8.346;2023-12-28T04:45:29;7.40;94.80
9699;DHT22;10089;47.876;8.346;2023-12-28T04:47:55;7.20;98.20
9699;DHT22;10089;47.876;8.346;2023-12-28T04:50:20;7.20;99.90
9699;DHT22;10089;47.876;8.346;2023-12-28T04:52:47;7.10;99.90
9699;DHT22;10089;47.876;8.346;2023-12-28T04:55:13;7.10;99.90
9699;DHT22;10089;47.876;8.346;2023-12-28T04:57:41;7.10;99.90
9699;DHT22;10089;47.876;8.346;2023-12-28T05:00:07;7.00;99.90
9699;DHT22;10089;47.876;8.346;2023-12-28T05:02:33;6.90;99.90
9699;DHT22;10089;47.876;8.346;2023-12-28T05:05:00;6.80;99.90
9699;DHT22;10089;47.876;8.346;2023-12-28T05:07:25;6.70;99.90
9699;DHT22;10089;47.876;8.346;2023-12-28T05:09:51;6.50;99.90
9699;DHT22;10089;47.876;8.346;2023-12-28T05:12:16;6.60;99.90
9699;DHT22;10089;47.876;8.346;2023-12-28T05:14:42;6.50;99.90
9699;DHT22;10089;47.876;8.346;2023-12-28T05:17:07;6.50;99.90
9699;DHT22;10089;47.876;8.346;2023-12-28T05:19:33;6.50;99.90
9699;DHT22;10089;47.876;8.346;2023-12-28T05:22:01;6.60;99.90
9699;DHT22;10089;47.876;8.346;2023-12-28T05:24:29;6.50;99.90
9699;DHT22;10089;47.876;8.346;2023-12-28T05:26:55;6.50;99.90
9699;DHT22;10089;47.876;8.346;2023-12-28T05:29:20;6.50;99.90
9699;DHT22;10089;47.876;8.346;2023-12-28T05:31:46;6.40;99.90
9699;DHT22;10089;47.876;8.346;2023-12-28T05:34:11;6.40;99.90
9699;DHT22;10089;47.876;8.346;2023-12-28T05:36:37;6.30;99.90
9699;DHT22;10089;47.876;8.346;2023-12-28T05:39:02;5.80;99.90
9699;DHT22;10089;47.876;8.346;2023-12-28T05:41:29;5.40;99.90
9699;DHT22;10089;47.876;8.346;2023-12-28T05:43:55;5.10;99.90
9699;DHT22;10089;47.876;8.346;2023-12-28T05:46:20;4.70;99.90
9699;DHT22;10089;47.876;8.346;2023-12-28T05:48:46;4.30;1.00
9699;DHT22;10089;47.876;8.346;2023-12-28T05:51:11;4.10;1.00
9699;DHT22;10089;47.876;8.346;2023-12-28T05:53:37;4.00;1.00
9699;DHT22;10089;47.876;8.346;2023-12-28T05:56:03;3.70;99.90
9699;DHT22;10089;47.876;8.346;2023-12-28T05:58:29;3.70;99.90
9699;DHT22;10089;47.876;8.346;2023-12-28T06:00:55;3.70;99.90
9699;DHT22;10089;47.876;8.346;2023-12-28T06:03:20;3.50;99.90
9699;DHT22;10089;47.876;8.346;2023-12-28T06:05:46;3.50;1.00
9699;DHT22;10089;47.876;8.346;2023-12-28T06:08:12;3.50;1.00
9699;DHT22;10089;47.876;8.346;2023-12-28T06:10:38;3.40;1.00
9699;DHT22;10089;47.876;8.346;2023-12-28T06:13:04;3.40;1.00
9699;DHT22;10089;47.876;8.346;2023-12-28T06:15:30;3.40;1.00
9699;DHT22;10089;47.876;8.346;2023-12-28T06:17:55;3.50;1.00
9699;DHT22;10089;47.876;8.346;2023-12-28T06:20:21;3.60;1.00
9699;DHT22;10089;47.876;8.346;2023-12-28T06:22:46;3.60;99.90
9699;DHT22;10089;47.876;8.346;2023-12-28T06:25:14;3.40;1.00
9699;DHT22;10089;47.876;8.346;2023-12-28T06:27:40;3.10;99.90
9699;DHT22;10089;47.876;8.346;2023-12-28T06:30:06;3.10;99.90
9699;DHT22;10089;47.876;8.346;2023-12-28T06:32:31;3.10;99.90
9699;DHT22;10089;47.876;8.346;2023-12-28T06:34:57;3.20;99.90
9699;DHT22;10089;47.876;8.346;2023-12-28T06:37:22;3.10;99.90
9699;DHT22;10089;47.876;8.346;2023-12-28T06:39:48;2.90;1.00
9699;DHT22;10089;47.876;8.346;2023-12-28T06:42:14;3.10;99.90
9699;DHT22;10089;47.876;8.346;2023-12-28T06:44:41;2.90;1.00
9699;DHT22;10089;47.876;8.346;2023-12-28T06:47:07;2.80;1.00
9699;DHT22;10089;47.876;8.346;2023-12-28T06:49:32;2.60;1.00
9699;DHT22;10089;47.876;8.346;2023-12-28T06:51:58;2.40;99.90
9699;DHT22;10089;47.876;8.346;2023-12-28T06:54:23;2.40;1.00
9699;DHT22;10089;47.876;8.346;2023-12-28T06:56:49;2.40;99.90
9699;DHT22;10089;47.876;8.346;2023-12-28T06:59:16;2.50;99.90
9699;DHT22;10089;47.876;8.346;2023-12-28T07:01:42;2.50;1.00
9699;DHT22;10089;47.876;8.346;2023-12-28T07:04:09;2.50;1.00
9699;DHT22;10089;47.876;8.346;2023-12-28T07:06:35;2.60;1.00
9699;DHT22;10089;47.876;8.346;2023-12-28T07:09:00;2.80;1.00
9699;DHT22;10089;47.876;8.346;2023-12-28T07:11:26;3.00;1.00
9699;DHT22;10089;47.876;8.346;2023-12-28T07:13:52;3.00;1.00
9699;DHT22;10089;47.876;8.346;2023-12-28T07:16:18;2.90;99.90
9699;DHT22;10089;47.876;8.346;2023-12-28T07:18:44;3.10;1.00
9699;DHT22;10089;47.876;8.346;2023-12-28T07:21:09;3.20;1.00
9699;DHT22;10089;47.876;8.346;2023-12-28T07:23:35;3.40;1.00
9699;DHT22;10089;47.876;8.346;2023-12-28T07:26:01;3.50;1.00
9699;DHT22;10089;47.876;8.346;2023-12-28T07:28:27;3.60;1.00
9699;DHT22;10089;47.876;8.346;2023-12-28T07:30:53;3.60;1.00
9699;DHT22;10089;47.876;8.346;2023-12-28T07:33:19;3.50;1.00
9699;DHT22;10089;47.876;8.346;2023-12-28T07:35:45;3.50;1.00
9699;DHT22;10089;47.876;8.346;2023-12-28T07:38:10;3.50;1.00
9699;DHT22;10089;47.876;8.346;2023-12-28T07:40:36;3.60;1.00
9699;DHT22;10089;47.876;8.346;2023-12-28T07:43:01;4.00;99.90
9699;DHT22;10089;47.876;8.346;2023-12-28T07:45:27;4.20;49.20
9699;DHT22;10089;47.876;8.346;2023-12-28T07:47:53;4.30;1.00
9699;DHT22;10089;47.876;8.346;2023-12-28T07:50:18;4.40;1.00
9699;DHT22;10089;47.876;8.346;2023-12-28T07:52:45;5.10;1.00
9699;DHT22;10089;47.876;8.346;2023-12-28T07:55:12;5.20;99.90
9699;DHT22;10089;47.876;8.346;2023-12-28T07:57:37;4.50;99.90
9699;DHT22;10089;47.876;8.346;2023-12-28T08:00:03;4.20;1.00
9699;DHT22;10089;47.876;8.346;2023-12-28T08:02:29;4.30;1.00
9699;DHT22;10089;47.876;8.346;2023-12-28T08:04:54;4.40;99.90
9699;DHT22;10089;47.876;8.346;2023-12-28T08:07:21;4.30;1.00
9699;DHT22;10089;47.876;8.346;2023-12-28T08:09:48;4.40;1.00
9699;DHT22;10089;47.876;8.346;2023-12-28T08:12:16;4.40;1.00
9699;DHT22;10089;47.876;8.346;2023-12-28T08:14:43;4.20;1.00
9699;DHT22;10089;47.876;8.346;2023-12-28T08:17:09;4.10;1.00
9699;DHT22;10089;47.876;8.346;2023-12-28T08:19:35;4.30;1.00
9699;DHT22;10089;47.876;8.346;2023-12-28T08:22:02;4.20;1.00
9699;DHT22;10089;47.876;8.346;2023-12-28T08:24:28;4.10;1.00
9699;DHT22;10089;47.876;8.346;2023-12-28T08:26:54;4.00;1.00
9699;DHT22;10089;47.876;8.346;2023-12-28T08:29:31;3.90;99.90
9699;DHT22;10089;47.876;8.346;2023-12-28T08:32:26;3.90;99.90
9699;DHT22;10089;47.876;8.346;2023-12-28T08:34:51;3.80;99.90
9699;DHT22;10089;47.876;8.346;2023-12-28T08:37:17;4.00;1.00
9699;DHT22;10089;47.876;8.346;2023-12-28T08:39:42;4.00;1.00
9699;DHT22;10089;47.876;8.346;2023-12-28T08:42:08;4.30;17.00
9699;DHT22;10089;47.876;8.346;2023-12-28T08:44:33;4.30;1.00
9699;DHT22;10089;47.876;8.346;2023-12-28T08:47:00;4.40;1.00
9699;DHT22;10089;47.876;8.346;2023-12-28T08:49:27;4.30;1.00
9699;DHT22;10089;47.876;8.346;2023-12-28T08:51:53;4.40;1.00
9699;DHT22;10089;47.876;8.346;2023-12-28T08:54:18;4.80;99.90
9699;DHT22;10089;47.876;8.346;2023-12-28T08:56:44;5.10;99.90
9699;DHT22;10089;47.876;8.346;2023-12-28T08:59:09;5.80;99.90
9699;DHT22;10089;47.876;8.346;2023-12-28T09:01:35;6.00;81.60
9699;DHT22;10089;47.876;8.346;2023-12-28T09:04:01;6.20;1.00
9699;DHT22;10089;47.876;8.346;2023-12-28T09:06:27;6.20;1.00
9699;DHT22;10089;47.876;8.346;2023-12-28T09:08:52;6.30;1.00
9699;DHT22;10089;47.876;8.346;2023-12-28T09:11:19;6.50;1.00
9699;DHT22;10089;47.876;8.346;2023-12-28T09:13:45;6.70;1.00
9699;DHT22;10089;47.876;8.346;2023-12-28T09:16:12;6.80;1.00
9699;DHT22;10089;47.876;8.346;2023-12-28T09:18:39;7.20;1.00
9699;DHT22;10089;47.876;8.346;2023-12-28T09:21:06;7.10;1.00
9699;DHT22;10089;47.876;8.346;2023-12-28T09:23:34;7.30;1.00
9699;DHT22;10089;47.876;8.346;2023-12-28T09:26:01;7.30;1.00
9699;DHT22;10089;47.876;8.346;2023-12-28T09:28:26;7.40;1.00
9699;DHT22;10089;47.876;8.346;2023-12-28T09:30:52;7.40;1.00
9699;DHT22;10089;47.876;8.346;2023-12-28T09:33:17;7.60;1.00
9699;DHT22;10089;47.876;8.346;2023-12-28T09:35:43;7.50;1.00
9699;DHT22;10089;47.876;8.346;2023-12-28T09:38:09;7.50;1.00
9699;DHT22;10089;47.876;8.346;2023-12-28T09:40:38;7.50;1.00
9699;DHT22;10089;47.876;8.346;2023-12-28T09:43:20;7.50;1.00
9699;DHT22;10089;47.876;8.346;2023-12-28T09:45:47;7.60;1.00
9699;DHT22;10089;47.876;8.346;2023-12-28T09:48:16;7.60;1.00
9699;DHT22;10089;47.876;8.346;2023-12-28T09:50:43;7.50;1.00
9699;DHT22;10089;47.876;8.346;2023-12-28T09:53:09;7.50;1.00
9699;DHT22;10089;47.876;8.346;2023-12-28T09:55:34;7.00;1.00
9699;DHT22;10089;47.876;8.346;2023-12-28T09:58:00;6.70;1.00
9699;DHT22;10089;47.876;8.346;2023-12-28T10:00:28;6.30;1.00
9699;DHT22;10089;47.876;8.346;2023-12-28T10:02:53;6.10;39.90
9699;DHT22;10089;47.876;8.346;2023-12-28T10:05:19;6.00;99.90
9699;DHT22;10089;47.876;8.346;2023-12-28T10:07:45;6.10;1.00
9699;DHT22;10089;47.876;8.346;2023-12-28T10:10:14;6.10;1.00
9699;DHT22;10089;47.876;8.346;2023-12-28T10:12:40;6.00;1.00
9699;DHT22;10089;47.876;8.346;2023-12-28T10:15:06;5.90;1.00
9699;DHT22;10089;47.876;8.346;2023-12-28T10:17:34;5.40;99.90
9699;DHT22;10089;47.876;8.346;2023-12-28T10:20:01;4.80;1.00
9699;DHT22;10089;47.876;8.346;2023-12-28T10:22:33;4.70;99.90
9699;DHT22;10089;47.876;8.346;2023-12-28T10:25:03;4.80;1.00
9699;DHT22;10089;47.876;8.346;2023-12-28T10:27:29;5.00;99.90
9699;DHT22;10089;47.876;8.346;2023-12-28T10:29:55;5.20;99.90
9699;DHT22;10089;47.876;8.346;2023-12-28T10:32:24;5.40;1.00
9699;DHT22;10089;47.876;8.346;2023-12-28T10:34:53;5.50;1.00
9699;DHT22;10089;47.876;8.346;2023-12-28T10:37:20;5.50;99.90
9699;DHT22;10089;47.876;8.346;2023-12-28T10:39:48;5.60;1.00
9699;DHT22;10089;47.876;8.346;2023-12-28T10:42:28;5.60;1.00
9699;DHT22;10089;47.876;8.346;2023-12-28T10:44:55;5.70;1.00
9699;DHT22;10089;47.876;8.346;2023-12-28T10:47:25;5.60;1.00
9699;DHT22;10089;47.876;8.346;2023-12-28T10:49:53;5.60;5.90
9699;DHT22;10089;47.876;8.346;2023-12-28T10:52:21;5.80;82.80
9699;DHT22;10089;47.876;8.346;2023-12-28T10:57:58;5.80;1.00
9699;DHT22;10089;47.876;8.346;2023-12-28T11:00:27;5.90;99.90
9699;DHT22;10089;47.876;8.346;2023-12-28T11:02:59;6.00;1.00
9699;DHT22;10089;47.876;8.346;2023-12-28T11:05:29;6.00;99.90
9699;DHT22;10089;47.876;8.346;2023-12-28T11:07:57;6.10;99.90
9699;DHT22;10089;47.876;8.346;2023-12-28T11:10:24;6.20;99.90
9699;DHT22;10089;47.876;8.346;2023-12-28T11:12:53;6.10;1.00
9699;DHT22;10089;47.876;8.346;2023-12-28T11:15:19;6.00;1.00
9699;DHT22;10089;47.876;8.346;2023-12-28T11:17:46;6.00;65.00
9699;DHT22;10089;47.876;8.346;2023-12-28T11:20:12;6.00;1.00
9699;DHT22;10089;47.876;8.346;2023-12-28T11:22:38;6.00;99.90
9699;DHT22;10089;47.876;8.346;2023-12-28T11:25:04;6.00;99.90
9699;DHT22;10089;47.876;8.346;2023-12-28T11:27:36;6.00;1.00
9699;DHT22;10089;47.876;8.346;2023-12-28T11:30:05;5.90;99.90
9699;DHT22;10089;47.876;8.346;2023-12-28T11:32:39;5.90;1.00
9699;DHT22;10089;47.876;8.346;2023-12-28T11:35:08;6.00;99.90
9699;DHT22;10089;47.876;8.346;2023-12-28T11:37:38;6.20;99.90
9699;DHT22;10089;47.876;8.346;2023-12-28T11:40:16;6.30;1.00
9699;DHT22;10089;47.876;8.346;2023-12-28T11:42:53;6.30;1.00
9699;DHT22;10089;47.876;8.346;2023-12-28T11:45:19;6.50;99.90
9699;DHT22;10089;47.876;8.346;2023-12-28T11:47:45;6.60;74.30
9699;DHT22;10089;47.876;8.346;2023-12-28T11:50:12;6.70;10.40
9699;DHT22;10089;47.876;8.346;2023-12-28T11:52:38;7.20;1.00
9699;DHT22;10089;47.876;8.346;2023-12-28T11:55:03;7.60;1.00
9699;DHT22;10089;47.876;8.346;2023-12-28T11:57:30;7.80;1.00
9699;DHT22;10089;47.876;8.346;2023-12-28T12:00:01;7.90;1.00
9699;DHT22;10089;47.876;8.346;2023-12-28T12:02:27;8.00;1.00
9699;DHT22;10089;47.876;8.346;2023-12-28T12:04:56;8.00;99.90
9699;DHT22;10089;47.876;8.346;2023-12-28T12:07:27;8.10;99.90
9699;DHT22;10089;47.876;8.346;2023-12-28T12:09:59;8.10;99.90
9699;DHT22;10089;47.876;8.346;2023-12-28T12:12:25;8.10;99.90
9699;DHT22;10089;47.876;8.346;2023-12-28T12:14:51;8.20;99.90
9699;DHT22;10089;47.876;8.346;2023-12-28T12:17:17;8.20;99.90
9699;DHT22;10089;47.876;8.346;2023-12-28T12:19:44;8.20;99.90
9699;DHT22;10089;47.876;8.346;2023-12-28T12:22:25;8.20;99.90
9699;DHT22;10089;47.876;8.346;2023-12-28T12:24:51;8.20;99.90
9699;DHT22;10089;47.876;8.346;2023-12-28T12:27:18;8.30;99.90
9699;DHT22;10089;47.876;8.346;2023-12-28T12:29:44;8.20;99.90
9699;DHT22;10089;47.876;8.346;2023-12-28T12:32:10;8.20;99.90
9699;DHT22;10089;47.876;8.346;2023-12-28T12:34:35;8.10;99.90
9699;DHT22;10089;47.876;8.346;2023-12-28T12:37:01;8.10;99.90
9699;DHT22;10089;47.876;8.346;2023-12-28T12:39:27;8.10;99.90
9699;DHT22;10089;47.876;8.346;2023-12-28T12:41:53;8.10;99.90
9699;DHT22;10089;47.876;8.346;2023-12-28T12:44:23;8.10;99.90
9699;DHT22;10089;47.876;8.346;2023-12-28T12:46:56;8.00;99.90
9699;DHT22;10089;47.876;8.346;2023-12-28T12:49:23;8.10;99.90
9699;DHT22;10089;47.876;8.346;2023-12-28T12:51:48;7.90;99.90
9699;DHT22;10089;47.876;8.346;2023-12-28T12:54:17;8.00;99.90
9699;DHT22;10089;47.876;8.346;2023-12-28T12:56:44;8.00;99.90
9699;DHT22;10089;47.876;8.346;2023-12-28T12:59:11;8.00;99.90
9699;DHT22;10089;47.876;8.346;2023-12-28T13:01:45;8.00;99.90
9699;DHT22;10089;47.876;8.346;2023-12-28T13:04:16;7.90;99.90
9699;DHT22;10089;47.876;8.346;2023-12-28T13:06:42;7.90;99.90
9699;DHT22;10089;47.876;8.346;2023-12-28T13:09:07;7.80;99.90
9699;DHT22;10089;47.876;8.346;2023-12-28T13:11:36;7.80;99.90
9699;DHT22;10089;47.876;8.346;2023-12-28T13:14:02;7.80;99.90
9699;DHT22;10089;47.876;8.346;2023-12-28T13:16:28;7.70;99.90
9699;DHT22;10089;47.876;8.346;2023-12-28T13:18:54;7.80;99.90
9699;DHT22;10089;47.876;8.346;2023-12-28T13:21:19;7.70;99.90
9699;DHT22;10089;47.876;8.346;2023-12-28T13:23:45;7.70;99.90
9699;DHT22;10089;47.876;8.346;2023-12-28T13:26:10;7.70;99.90
9699;DHT22;10089;47.876;8.346;2023-12-28T13:28:36;7.70;99.90
9699;DHT22;10089;47.876;8.346;2023-12-28T13:31:02;7.70;99.90
9699;DHT22;10089;47.876;8.346;2023-12-28T13:33:27;7.70;99.90
9699;DHT22;10089;47.876;8.346;2023-12-28T13:35:55;7.70;99.90
9699;DHT22;10089;47.876;8.346;2023-12-28T13:38:22;7.80;99.90
9699;DHT22;10089;47.876;8.346;2023-12-28T13:40:48;7.90;99.90
9699;DHT22;10089;47.876;8.346;2023-12-28T13:43:13;7.90;99.90
9699;DHT22;10089;47.876;8.346;2023-12-28T13:45:39;7.90;99.90
9699;DHT22;10089;47.876;8.346;2023-12-28T13:48:17;7.90;99.90
9699;DHT22;10089;47.876;8.346;2023-12-28T13:50:42;7.80;1.00
9699;DHT22;10089;47.876;8.346;2023-12-28T13:53:09;7.80;99.90
9699;DHT22;10089;47.876;8.346;2023-12-28T13:55:35;7.80;1.00
9699;DHT22;10089;47.876;8.346;2023-12-28T13:58:01;7.70;70.70
9699;DHT22;10089;47.876;8.346;2023-12-28T14:00:28;7.60;1.00
9699;DHT22;10089;47.876;8.346;2023-12-28T14:02:54;7.60;1.00
9699;DHT22;10089;47.876;8.346;2023-12-28T14:05:19;7.60;1.00
9699;DHT22;10089;47.876;8.346;2023-12-28T14:08:13;7.50;99.90
9699;DHT22;10089;47.876;8.346;2023-12-28T14:10:39;7.40;1.00
9699;DHT22;10089;47.876;8.346;2023-12-28T14:13:06;7.30;1.00
9699;DHT22;10089;47.876;8.346;2023-12-28T14:15:32;7.20;1.00
9699;DHT22;10089;47.876;8.346;2023-12-28T14:17:58;7.30;99.90
9699;DHT22;10089;47.876;8.346;2023-12-28T14:20:23;7.20;1.00
9699;DHT22;10089;47.876;8.346;2023-12-28T14:22:49;7.20;1.00
9699;DHT22;10089;47.876;8.346;2023-12-28T14:25:15;7.20;1.00
9699;DHT22;10089;47.876;8.346;2023-12-28T14:27:41;7.20;99.90
9699;DHT22;10089;47.876;8.346;2023-12-28T14:30:11;7.20;1.00
9699;DHT22;10089;47.876;8.346;2023-12-28T14:32:44;7.10;1.00
9699;DHT22;10089;47.876;8.346;2023-12-28T14:36:20;7.10;99.90
9699;DHT22;10089;47.876;8.346;2023-12-28T14:39:20;7.10;99.90
9699;DHT22;10089;47.876;8.346;2023-12-28T14:46:13;7.00;99.90
9699;DHT22;10089;47.876;8.346;2023-12-28T14:48:46;7.00;99.90
9699;DHT22;10089;47.876;8.346;2023-12-28T14:52:08;6.20;99.90
9699;DHT22;10089;47.876;8.346;2023-12-28T14:54:33;6.40;1.00
9699;DHT22;10089;47.876;8.346;2023-12-28T14:56:59;5.90;99.90
9699;DHT22;10089;47.876;8.346;2023-12-28T14:59:26;5.90;99.90
9699;DHT22;10089;47.876;8.346;2023-12-28T15:01:55;5.80;1.00
9699;DHT22;10089;47.876;8.346;2023-12-28T15:04:24;5.80;1.00
9699;DHT22;10089;47.876;8.346;2023-12-28T15:06:51;5.80;1.00
9699;DHT22;10089;47.876;8.346;2023-12-28T15:09:18;6.10;1.00
9699;DHT22;10089;47.876;8.346;2023-12-28T15:11:45;6.10;1.00
9699;DHT22;10089;47.876;8.346;2023-12-28T15:14:12;5.80;1.00
9699;DHT22;10089;47.876;8.346;2023-12-28T15:16:38;5.70;1.00
9699;DHT22;10089;47.876;8.346;2023-12-28T15:19:05;5.70;1.00
9699;DHT22;10089;47.876;8.346;2023-12-28T15:21:32;5.70;1.00
9699;DHT22;10089;47.876;8.346;2023-12-28T15:24:00;5.60;1.00
9699;DHT22;10089;47.876;8.346;2023-12-28T15:26:27;5.50;1.00
9699;DHT22;10089;47.876;8.346;2023-12-28T15:28:59;5.30;1.00
9699;DHT22;10089;47.876;8.346;2023-12-28T15:31:24;5.20;1.00
9699;DHT22;10089;47.876;8.346;2023-12-28T15:33:50;5.20;1.00
9699;DHT22;10089;47.876;8.346;2023-12-28T15:36:15;5.10;1.00
9699;DHT22;10089;47.876;8.346;2023-12-28T15:38:42;5.20;1.00
9699;DHT22;10089;47.876;8.346;2023-12-28T15:41:08;5.10;1.00
9699;DHT22;10089;47.876;8.346;2023-12-28T15:43:34;5.00;1.00
9699;DHT22;10089;47.876;8.346;2023-12-28T15:46:00;5.00;1.00
9699;DHT22;10089;47.876;8.346;2023-12-28T15:48:27;5.00;1.00
9699;DHT22;10089;47.876;8.346;2023-12-28T15:50:53;5.00;1.00
9699;DHT22;10089;47.876;8.346;2023-12-28T15:53:18;5.00;1.00
9699;DHT22;10089;47.876;8.346;2023-12-28T15:55:45;5.10;1.00
9699;DHT22;10089;47.876;8.346;2023-12-28T15:58:12;5.10;1.00
9699;DHT22;10089;47.876;8.346;2023-12-28T16:00:38;5.10;23.60
9699;DHT22;10089;47.876;8.346;2023-12-28T16:03:04;5.20;26.50
9699;DHT22;10089;47.876;8.346;2023-12-28T16:05:30;5.10;99.90
9699;DHT22;10089;47.876;8.346;2023-12-28T16:07:56;5.10;99.90
9699;DHT22;10089;47.876;8.346;2023-12-28T16:10:22;5.20;99.90
9699;DHT22;10089;47.876;8.346;2023-12-28T16:12:48;5.20;99.90
9699;DHT22;10089;47.876;8.346;2023-12-28T16:15:14;5.20;99.90
9699;DHT22;10089;47.876;8.346;2023-12-28T16:17:40;5.20;99.90